Time;durP1;ratioP1;P1;durP2;ratioP2;P2;SDS_P1;SDS_P2;PMS_P1;PMS_P2;Temp;Humidity;BMP_temperature;BMP_pressure;BME280_temperature;BME280_humidity;BME280_pressure;Samples;Min_cycle;Max_cycle;Signal;HPM_P1;HPM_P2
2023/05/13 00:00:59;;;;;;;;;;;10.80;69.90;;;9.86;64.11;96679.72;5070774;28;19927;-81
2023/05/13 00:03:27;;;;;;;;;;;10.80;70.00;;;9.87;64.24;96683.31;5057293;28;20097;-81
2023/05/13 00:05:55;;;;;;;;;;;10.80;70.10;;;9.86;64.07;96678.91;5057366;28;19926;-81
2023/05/13 00:08:23;;;;;;;;;;;10.80;69.90;;;9.88;63.94;96682.19;5056900;28;20112;-81
2023/05/13 00:10:51;;;;;;;;;;;10.80;69.80;;;9.87;64.10;96689.59;5074291;28;19926;-81
2023/05/13 00:13:19;;;;;;;;;;;10.80;69.70;;;9.86;63.91;96690.66;5074067;28;19942;-81
2023/05/13 00:15:47;;;;;;;;;;;10.80;69.70;;;9.86;63.79;96698.06;5057457;28;20111;-81
2023/05/13 00:18:17;;;;;;;;;;;10.80;69.60;;;9.86;64.10;96696.13;5056816;28;19920;-80
2023/05/13 00:20:45;;;;;;;;;;;10.80;69.70;;;9.86;64.18;96695.31;5056838;28;20249;-81
2023/05/13 00:23:13;;;;;;;;;;;10.80;70.00;;;9.86;63.98;96695.31;5073718;28;19920;-81
2023/05/13 00:25:43;;;;;;;;;;;10.80;69.70;;;9.86;64.19;96692.59;5073824;28;20075;-81
2023/05/13 00:28:12;;;;;;;;;;;10.80;69.70;;;9.82;63.75;96698.56;5073950;28;19920;-81
2023/05/13 00:30:42;;;;;;;;;;;10.80;69.40;;;9.79;64.03;96696.31;5073447;28;19920;-80
2023/05/13 00:33:11;;;;;;;;;;;10.80;69.70;;;9.79;63.94;96688.13;5073790;28;19920;-81
2023/05/13 00:35:40;;;;;;;;;;;10.80;69.70;;;9.79;64.30;96695.50;5057180;28;19926;-80
2023/05/13 00:38:08;;;;;;;;;;;10.80;69.90;;;9.79;64.11;96696.31;5073683;28;20115;-81
2023/05/13 00:40:38;;;;;;;;;;;10.80;69.90;;;9.79;63.92;96703.72;5091015;28;19920;-81
2023/05/13 00:43:06;;;;;;;;;;;10.80;70.00;;;9.79;64.24;96696.31;5056967;28;19920;-81
2023/05/13 00:45:36;;;;;;;;;;;10.80;70.20;;;9.80;64.16;96697.97;5056929;28;20204;-81
2023/05/13 00:48:05;;;;;;;;;;;10.80;69.90;;;9.80;64.30;96699.91;5056807;28;19920;-81
2023/05/13 00:50:34;;;;;;;;;;;10.80;70.10;;;9.81;64.27;96698.81;5090889;28;19920;-81
2023/05/13 00:53:03;;;;;;;;;;;10.80;69.90;;;9.78;64.22;96705.59;5073402;28;19920;-81
2023/05/13 00:55:31;;;;;;;;;;;10.80;69.70;;;9.79;64.04;96706.44;5056907;28;19920;-81
2023/05/13 00:57:59;;;;;;;;;;;10.80;69.80;;;9.77;64.22;96703.94;5056718;28;19942;-81
2023/05/13 01:00:28;;;;;;;;;;;10.70;69.70;;;9.78;64.26;96700.13;5055543;28;19920;-81
2023/05/13 01:03:00;;;;;;;;;;;10.80;70.00;;;9.77;64.01;96705.88;5056622;28;20238;-82
2023/05/13 01:05:31;;;;;;;;;;;10.70;69.80;;;9.76;64.13;96707.75;5073345;28;19920;-81
2023/05/13 01:08:04;;;;;;;;;;;10.70;69.80;;;9.74;64.21;96704.47;5091097;28;20204;-81
2023/05/13 01:10:36;;;;;;;;;;;10.70;69.90;;;9.76;64.00;96707.75;5072809;28;20112;-81
2023/05/13 01:13:07;;;;;;;;;;;10.70;69.90;;;9.73;64.12;96708.28;5056478;28;19927;-81
2023/05/13 01:15:36;;;;;;;;;;;10.70;69.90;;;9.73;64.06;96702.81;5073311;28;19927;-81
2023/05/13 01:18:06;;;;;;;;;;;10.70;70.00;;;9.74;64.34;96709.94;5073073;28;19927;-81
2023/05/13 01:20:34;;;;;;;;;;;10.70;70.00;;;9.75;64.29;96706.09;5072410;28;19920;-81
2023/05/13 01:23:05;;;;;;;;;;;10.70;70.00;;;9.75;64.49;96694.34;5073213;28;19927;-81
2023/05/13 01:25:33;;;;;;;;;;;10.70;70.10;;;9.75;64.31;96705.28;5056426;28;20124;-81
2023/05/13 01:28:01;;;;;;;;;;;10.70;70.00;;;9.73;64.18;96705.56;5073156;28;20212;-81
2023/05/13 01:30:31;;;;;;;;;;;10.70;69.90;;;9.70;64.04;96699.75;5055854;28;19926;-81
2023/05/13 01:32:59;;;;;;;;;;;10.70;69.90;;;9.67;64.53;96701.09;5072780;28;19926;-81
2023/05/13 01:35:27;;;;;;;;;;;10.60;69.90;;;9.64;64.34;96705.16;5056348;28;20101;-81
2023/05/13 01:37:55;;;;;;;;;;;10.60;70.10;;;9.63;64.59;96703.50;5056398;28;20212;-81
2023/05/13 01:40:24;;;;;;;;;;;10.60;70.30;;;9.64;64.69;96709.78;5052218;28;20124;-81
2023/05/13 01:42:53;;;;;;;;;;;10.60;70.50;;;9.63;64.69;96706.22;5052886;28;19921;-82
2023/05/13 01:45:21;;;;;;;;;;;10.60;70.60;;;9.65;64.66;96705.97;5052756;28;19921;-82
2023/05/13 01:47:50;;;;;;;;;;;10.60;70.60;;;9.66;64.65;96704.88;5069439;28;19927;-82
2023/05/13 01:50:18;;;;;;;;;;;10.60;70.50;;;9.66;64.71;96707.63;5055218;28;19920;-81
2023/05/13 01:52:46;;;;;;;;;;;10.60;70.50;;;9.67;64.77;96706.53;5056066;28;19920;-82
2023/05/13 01:55:14;;;;;;;;;;;10.60;70.40;;;9.67;64.68;96703.81;5090629;28;19920;-82
2023/05/13 01:57:45;;;;;;;;;;;10.60;70.50;;;9.67;64.65;96706.53;5072856;28;19920;-81
2023/05/13 02:00:14;;;;;;;;;;;10.70;70.70;;;9.69;64.31;96704.41;5055295;28;19920;-81
2023/05/13 02:02:43;;;;;;;;;;;10.70;70.50;;;9.68;64.72;96717.22;5072182;28;19927;-81
2023/05/13 02:05:11;;;;;;;;;;;10.70;70.50;;;9.70;64.64;96713.41;5055074;28;19920;-81
2023/05/13 02:07:39;;;;;;;;;;;10.70;70.60;;;9.70;64.63;96708.78;5055641;28;19943;-81
2023/05/13 02:10:08;;;;;;;;;;;10.70;70.40;;;9.70;64.77;96714.25;5072179;28;19927;-82
2023/05/13 02:12:36;;;;;;;;;;;10.70;70.50;;;9.70;64.88;96711.53;5056841;28;19930;-81
2023/05/13 02:15:07;;;;;;;;;;;10.70;70.70;;;9.70;64.75;96708.78;5059205;28;19923;-81
2023/05/13 02:17:35;;;;;;;;;;;10.70;70.70;;;9.70;64.84;96714.25;5075862;28;19926;-81
2023/05/13 02:20:05;;;;;;;;;;;10.70;70.70;;;9.68;64.86;96711.75;5058416;28;19926;-82
2023/05/13 02:22:33;;;;;;;;;;;10.60;70.60;;;9.71;64.71;96713.19;5075960;28;19920;-81
2023/05/13 02:25:01;;;;;;;;;;;10.70;70.80;;;9.69;64.83;96723.53;5075823;28;19920;-81
2023/05/13 02:27:30;;;;;;;;;;;10.70;70.70;;;9.69;64.74;96712.59;5059003;28;19926;-81
2023/05/13 02:29:58;;;;;;;;;;;10.70;70.70;;;9.70;64.83;96719.72;5058249;28;19920;-81
2023/05/13 02:32:28;;;;;;;;;;;10.70;70.70;;;9.70;65.00;96719.72;5058903;28;19920;-81
2023/05/13 02:34:56;;;;;;;;;;;10.70;70.60;;;9.70;64.90;96724.34;5075488;28;19927;-81
2023/05/13 02:37:24;;;;;;;;;;;10.70;70.70;;;9.71;64.97;96726.84;5059013;28;19920;-81
2023/05/13 02:40:00;;;;;;;;;;;10.70;70.70;;;9.69;64.75;96718.06;5074931;28;19921;-81
2023/05/13 02:42:28;;;;;;;;;;;10.70;70.80;;;9.70;64.88;96725.19;5074997;28;19942;-81
2023/05/13 02:44:57;;;;;;;;;;;10.70;70.90;;;9.71;64.98;96724.09;5075510;28;19921;-81
2023/05/13 02:47:28;;;;;;;;;;;10.70;70.80;;;9.70;64.99;96730.66;5058649;28;19920;-81
2023/05/13 02:49:59;;;;;;;;;;;10.70;70.90;;;9.70;65.14;96724.34;5057912;28;20123;-81
2023/05/13 02:52:27;;;;;;;;;;;10.70;70.80;;;9.71;65.08;96726.00;5058699;28;19920;-81
2023/05/13 02:54:55;;;;;;;;;;;10.70;70.90;;;9.70;64.96;96725.19;5093206;28;20120;-81
2023/05/13 02:57:24;;;;;;;;;;;10.70;71.00;;;9.70;65.10;96725.19;5075379;28;19920;-81
2023/05/13 02:59:52;;;;;;;;;;;10.70;71.00;;;9.71;64.97;96735.03;5074520;28;20204;-81
2023/05/13 03:02:20;;;;;;;;;;;10.70;71.00;;;9.71;65.03;96726.84;5058461;28;19920;-82
2023/05/13 03:04:51;;;;;;;;;;;10.70;71.00;;;9.72;65.07;96728.50;5075133;28;19926;-81
2023/05/13 03:07:19;;;;;;;;;;;10.70;71.00;;;9.73;65.05;96729.31;5074950;28;19920;-81
2023/05/13 03:09:47;;;;;;;;;;;10.70;71.00;;;9.72;65.17;96723.03;5057693;28;19927;-81
2023/05/13 03:12:15;;;;;;;;;;;10.70;71.00;;;9.72;65.26;96730.38;5058415;28;19982;-81
2023/05/13 03:14:43;;;;;;;;;;;10.70;71.00;;;9.72;65.02;96727.66;5074973;28;19924;-81
2023/05/13 03:17:11;;;;;;;;;;;10.70;71.00;;;9.71;65.25;96732.31;5058381;28;19920;-81
2023/05/13 03:19:39;;;;;;;;;;;10.70;71.00;;;9.72;65.25;96731.25;5057773;28;19921;-81
2023/05/13 03:22:09;;;;;;;;;;;10.70;71.00;;;9.72;65.15;96730.38;5058329;28;19920;-80
2023/05/13 03:24:37;;;;;;;;;;;10.70;71.20;;;9.72;65.32;96733.13;5074582;28;19930;-81
2023/05/13 03:27:05;;;;;;;;;;;10.70;71.20;;;9.73;65.33;96743.00;5058062;28;19926;-80
2023/05/13 03:29:34;;;;;;;;;;;10.70;71.20;;;9.73;65.29;96741.09;5057392;28;20123;-81
2023/05/13 03:32:05;;;;;;;;;;;10.70;71.30;;;9.73;65.27;96751.19;5058065;28;20120;-81
2023/05/13 03:34:35;;;;;;;;;;;10.70;71.20;;;9.72;65.32;96755.00;5058198;28;20233;-81
2023/05/13 03:37:04;;;;;;;;;;;10.70;71.20;;;9.68;65.19;96760.97;5057911;28;19921;-81
2023/05/13 03:39:35;;;;;;;;;;;10.70;71.20;;;9.66;65.42;96762.31;5057258;28;19934;-81
2023/05/13 03:42:03;;;;;;;;;;;10.60;71.20;;;9.66;65.54;96765.88;5074752;28;19920;-81
2023/05/13 03:44:31;;;;;;;;;;;10.60;71.40;;;9.66;65.57;96774.06;5057720;28;19946;-81
2023/05/13 03:46:59;;;;;;;;;;;10.60;71.40;;;9.65;65.71;96766.09;5057733;28;19921;-81
2023/05/13 03:49:27;;;;;;;;;;;10.60;71.40;;;9.67;65.71;96769.44;5073722;28;19920;-81
2023/05/13 03:51:55;;;;;;;;;;;10.60;71.40;;;9.67;65.35;96763.97;5054020;28;20212;-81
2023/05/13 03:54:24;;;;;;;;;;;10.60;71.40;;;9.68;65.55;96765.63;5054406;28;19921;-81
2023/05/13 03:56:53;;;;;;;;;;;10.60;71.40;;;9.68;65.51;96768.34;5054289;28;19975;-81
2023/05/13 03:59:21;;;;;;;;;;;10.70;71.60;;;9.68;65.68;96771.91;5036952;28;20123;-80
2023/05/13 04:01:49;;;;;;;;;;;10.70;71.60;;;9.68;65.62;96779.28;5037558;28;19920;-81
2023/05/13 04:04:17;;;;;;;;;;;10.70;71.50;;;9.69;65.83;96778.22;5037565;28;19926;-81
2023/05/13 04:06:45;;;;;;;;;;;10.70;71.60;;;9.70;65.70;96785.34;5070603;28;19927;-81
2023/05/13 04:09:13;;;;;;;;;;;10.70;72.50;;;9.70;65.66;96784.50;5053407;28;19921;-81
2023/05/13 04:11:43;;;;;;;;;;;10.70;71.70;;;9.70;65.54;96779.88;5036826;28;20108;-81
2023/05/13 04:14:12;;;;;;;;;;;10.70;71.80;;;9.71;65.70;96783.41;5054041;28;19927;-81
2023/05/13 04:16:40;;;;;;;;;;;10.60;71.60;;;9.71;65.82;96788.88;5053705;28;19927;-81
2023/05/13 04:19:10;;;;;;;;;;;10.70;71.70;;;9.70;65.90;96787.22;5070122;28;19920;-81
2023/05/13 04:21:38;;;;;;;;;;;10.70;71.70;;;9.70;66.02;96793.53;5073866;28;19927;-81
2023/05/13 04:24:06;;;;;;;;;;;10.70;71.80;;;9.70;65.73;96796.28;5057252;28;20089;-81
2023/05/13 04:26:34;;;;;;;;;;;10.70;71.80;;;9.70;65.96;96790.81;5073690;28;19920;-81
2023/05/13 04:29:02;;;;;;;;;;;10.70;71.80;;;9.70;65.79;96796.28;5073210;28;19920;-80
2023/05/13 04:31:32;;;;;;;;;;;10.70;71.90;;;9.71;66.05;96791.63;5073849;28;20203;-81
2023/05/13 04:34:00;;;;;;;;;;;10.70;71.90;;;9.71;66.11;96794.34;5057177;28;20101;-81
2023/05/13 04:36:28;;;;;;;;;;;10.70;71.90;;;9.71;66.03;96803.41;5056222;28;19928;-81
2023/05/13 04:38:57;;;;;;;;;;;10.70;72.00;;;9.71;65.94;96797.94;5073137;28;19926;-81
2023/05/13 04:41:25;;;;;;;;;;;10.70;71.90;;;9.70;65.80;96801.75;5056852;28;19920;-81
2023/05/13 04:43:53;;;;;;;;;;;10.70;72.00;;;9.72;65.99;96806.94;5057036;28;19942;-81
2023/05/13 04:46:21;;;;;;;;;;;10.70;72.00;;;9.71;65.94;96803.41;5056782;28;19924;-81
2023/05/13 04:48:53;;;;;;;;;;;10.70;72.00;;;9.72;66.17;96807.78;5056285;28;19928;-81
2023/05/13 04:51:21;;;;;;;;;;;10.70;72.10;;;9.73;65.92;96811.34;5056593;28;19920;-81
2023/05/13 04:53:49;;;;;;;;;;;10.70;72.10;;;9.73;66.28;96801.25;5073573;28;19920;-81
2023/05/13 04:56:17;;;;;;;;;;;10.70;72.30;;;9.74;66.11;96802.06;5056712;28;19920;-81
2023/05/13 04:58:45;;;;;;;;;;;10.70;72.20;;;9.75;66.30;96807.25;5055996;28;19928;-81
2023/05/13 05:01:15;;;;;;;;;;;10.70;72.20;;;9.74;66.21;96811.09;5056729;28;19920;-81
2023/05/13 05:03:43;;;;;;;;;;;10.70;72.20;;;9.74;66.06;96802.91;5056888;28;19927;-81
2023/05/13 05:06:13;;;;;;;;;;;10.70;72.10;;;9.74;66.11;96802.91;5053256;28;20123;-81
2023/05/13 05:08:43;;;;;;;;;;;10.70;72.10;;;9.74;66.49;96811.09;5036002;28;19931;-81
2023/05/13 05:11:11;;;;;;;;;;;10.70;72.20;;;9.74;66.05;96813.84;5036866;28;19920;-81
2023/05/13 05:13:39;;;;;;;;;;;10.70;72.20;;;9.74;66.31;96802.06;5053211;28;19927;-81
2023/05/13 05:16:07;;;;;;;;;;;10.70;72.20;;;9.74;66.19;96802.91;5070906;28;19944;-81
2023/05/13 05:18:36;;;;;;;;;;;10.70;73.10;;;9.75;65.79;96812.72;5052715;28;19921;-81
2023/05/13 05:21:05;;;;;;;;;;;10.70;72.20;;;9.75;66.34;96804.53;5053218;28;19920;-81
2023/05/13 05:23:35;;;;;;;;;;;10.70;72.30;;;9.76;66.34;96803.47;5053205;28;20230;-81
2023/05/13 05:26:04;;;;;;;;;;;10.70;72.30;;;9.77;66.04;96807.84;5053143;28;19921;-81
2023/05/13 05:28:35;;;;;;;;;;;10.70;72.20;;;9.79;66.32;96815.81;5052375;28;19925;-80
2023/05/13 05:31:03;;;;;;;;;;;10.70;72.30;;;9.79;66.43;96816.63;5053159;28;19921;-81
2023/05/13 05:33:32;;;;;;;;;;;10.80;72.30;;;9.79;66.46;96811.16;5053001;28;19928;-81
2023/05/13 05:36:01;;;;;;;;;;;10.80;72.20;;;9.80;65.97;96817.47;5053031;28;19921;-81
2023/05/13 05:38:29;;;;;;;;;;;10.80;72.00;;;9.79;65.97;96813.91;5052106;28;19927;-81
2023/05/13 05:41:00;;;;;;;;;;;10.80;72.00;;;9.82;66.15;96816.13;5053124;28;20111;-80
2023/05/13 05:43:29;;;;;;;;;;;10.80;72.10;;;9.81;66.19;96817.22;5053008;28;20089;-81
2023/05/13 05:45:57;;;;;;;;;;;10.80;72.30;;;9.81;66.20;96813.66;5052851;28;19942;-81
2023/05/13 05:48:26;;;;;;;;;;;10.80;72.20;;;9.82;66.14;96827.06;5054445;28;19920;-81
2023/05/13 05:50:55;;;;;;;;;;;10.80;72.10;;;9.82;66.24;96821.59;5039690;28;19927;-80
2023/05/13 05:53:30;;;;;;;;;;;10.80;72.10;;;9.83;66.26;96823.28;5056260;28;19926;-80
2023/05/13 05:56:00;;;;;;;;;;;10.80;72.10;;;9.83;65.92;96831.47;5056059;28;19921;-80
2023/05/13 05:58:28;;;;;;;;;;;10.80;72.00;;;9.83;66.25;96834.22;5055457;28;19921;-80
2023/05/13 06:00:57;;;;;;;;;;;10.80;72.20;;;9.85;66.40;96827.66;5073939;28;19921;-80
2023/05/13 06:03:26;;;;;;;;;;;10.80;72.10;;;9.86;66.01;96837.53;5039473;28;20115;-80
2023/05/13 06:05:54;;;;;;;;;;;10.80;72.00;;;9.86;66.14;96840.25;5056125;28;19920;-81
2023/05/13 06:08:28;;;;;;;;;;;10.80;72.10;;;9.87;66.29;96833.72;5038827;28;19921;-81
2023/05/13 06:10:57;;;;;;;;;;;10.80;72.10;;;9.88;66.02;96829.88;5056185;28;19983;-81
2023/05/13 06:13:26;;;;;;;;;;;10.80;72.00;;;9.88;66.30;96838.91;5046173;28;19926;-81
2023/05/13 06:15:56;;;;;;;;;;;10.80;72.10;;;9.89;65.97;96837.00;5059333;28;19927;-81
2023/05/13 06:18:24;;;;;;;;;;;10.80;72.00;;;9.89;66.23;96837.00;5058578;28;20212;-81
2023/05/13 06:20:52;;;;;;;;;;;10.80;72.10;;;9.90;66.20;96838.66;5076084;28;20204;-81
2023/05/13 06:23:20;;;;;;;;;;;10.80;72.30;;;9.90;66.26;96838.66;5058952;28;19927;-81
2023/05/13 06:25:48;;;;;;;;;;;10.80;72.30;;;9.92;66.24;96833.78;5075700;28;19920;-81
2023/05/13 06:28:16;;;;;;;;;;;10.80;72.20;;;9.93;65.88;96832.69;5058649;28;19920;-81
2023/05/13 06:30:45;;;;;;;;;;;10.90;72.10;;;9.94;66.09;96834.34;5058751;28;19934;-81
2023/05/13 06:33:13;;;;;;;;;;;10.90;72.30;;;9.96;66.37;96837.66;5059017;28;20093;-81
2023/05/13 06:35:41;;;;;;;;;;;10.90;72.60;;;9.98;65.58;96836.34;5059153;28;20235;-81
2023/05/13 06:38:12;;;;;;;;;;;10.90;72.10;;;10.03;65.65;96838.31;5075525;28;19920;-81
2023/05/13 06:40:40;;;;;;;;;;;10.90;71.80;;;10.05;65.79;96847.09;5075079;28;19920;-81
2023/05/13 06:43:08;;;;;;;;;;;11.00;71.70;;;10.10;65.29;96844.44;5075407;28;20216;-81
2023/05/13 06:45:39;;;;;;;;;;;11.00;71.50;;;10.13;65.49;96843.09;5059007;28;19920;-81
2023/05/13 06:48:09;;;;;;;;;;;11.00;71.50;;;10.20;65.18;96848.41;5075558;28;20115;-81
2023/05/13 06:50:38;;;;;;;;;;;11.10;71.30;;;10.22;65.30;96846.25;5058265;28;19942;-80
2023/05/13 06:53:06;;;;;;;;;;;11.10;71.20;;;10.26;65.14;96847.41;5058511;28;19927;-81
2023/05/13 06:55:40;;;;;;;;;;;11.20;71.10;;;10.27;64.85;96844.41;5058719;28;19920;-81
2023/05/13 06:58:08;;;;;;;;;;;11.20;71.00;;;10.31;64.81;96861.13;5058363;28;19926;-81
2023/05/13 07:00:37;;;;;;;;;;;11.20;70.80;;;10.32;64.73;96846.38;5057989;28;20215;-81
2023/05/13 07:03:05;;;;;;;;;;;11.20;70.50;;;10.34;64.51;96849.69;5075191;28;19920;-81
2023/05/13 07:05:34;;;;;;;;;;;11.30;70.50;;;10.38;64.52;96847.31;5075194;28;19920;-81
2023/05/13 07:08:05;;;;;;;;;;;11.30;70.40;;;10.40;64.57;96847.88;5092914;28;20134;-81
2023/05/13 07:10:33;;;;;;;;;;;11.30;70.40;;;10.43;64.40;96839.97;5057875;28;19920;-81
2023/05/13 07:13:02;;;;;;;;;;;11.40;70.40;;;10.47;64.28;96842.22;5075165;28;19920;-81
2023/05/13 07:15:30;;;;;;;;;;;11.40;70.10;;;10.52;64.47;96843.13;5075125;28;19928;-81
2023/05/13 07:17:58;;;;;;;;;;;11.40;70.20;;;10.57;64.09;96839.59;5074855;28;19927;-81
2023/05/13 07:20:26;;;;;;;;;;;11.50;70.90;;;10.61;64.01;96840.75;5057689;28;19921;-81
2023/05/13 07:22:55;;;;;;;;;;;11.50;70.00;;;10.64;64.25;96845.75;5074884;28;19920;-81
2023/05/13 07:25:23;;;;;;;;;;;11.50;70.00;;;10.70;64.00;96836.47;5092751;28;19920;-81
2023/05/13 07:27:51;;;;;;;;;;;11.60;69.90;;;10.77;63.87;96847.25;5057909;28;20230;-81
2023/05/13 07:30:19;;;;;;;;;;;11.60;69.80;;;10.83;63.58;96837.19;5057432;28;19920;-81
2023/05/13 07:32:47;;;;;;;;;;;11.70;69.70;;;10.89;63.42;96836.16;5057885;28;19920;-81
2023/05/13 07:35:16;;;;;;;;;;;11.70;69.50;;;10.95;63.42;96832.38;5058187;28;20228;-81
2023/05/13 07:37:44;;;;;;;;;;;11.80;69.30;;;11.01;63.14;96834.09;5057904;28;19920;-81
2023/05/13 07:40:14;;;;;;;;;;;11.90;69.20;;;11.09;62.87;96835.56;5053935;28;19920;-81
2023/05/13 07:42:42;;;;;;;;;;;11.90;69.00;;;11.15;62.69;96830.94;5037403;28;19921;-81
2023/05/13 07:45:11;;;;;;;;;;;12.00;68.70;;;11.20;62.51;96839.22;5072451;28;19927;-81
2023/05/13 07:47:38;;;;;;;;;;;12.00;68.40;;;11.23;62.53;96838.69;5054487;28;19920;-81
2023/05/13 07:50:08;;;;;;;;;;;12.10;68.30;;;11.27;62.37;96828.03;5071618;28;19935;-81
2023/05/13 07:52:36;;;;;;;;;;;12.10;68.10;;;11.31;62.22;96832.72;5037830;28;19927;-81
2023/05/13 07:55:04;;;;;;;;;;;12.20;67.90;;;11.33;62.30;96837.97;5054506;28;19942;-81
2023/05/13 07:57:34;;;;;;;;;;;12.20;67.80;;;11.35;61.70;96841.28;5072189;28;19979;-81
2023/05/13 08:00:02;;;;;;;;;;;12.20;67.60;;;11.38;61.73;96834.44;5053489;28;19920;-81
2023/05/13 08:02:42;;;;;;;;;;;12.20;67.20;;;11.41;61.49;96833.94;5054444;28;19927;-81
2023/05/13 08:05:11;;;;;;;;;;;12.20;67.20;;;11.42;61.41;96830.91;5054208;28;19921;-81
2023/05/13 08:07:38;;;;;;;;;;;12.30;66.80;;;11.46;61.06;96839.44;5037650;28;19920;-81
2023/05/13 08:10:08;;;;;;;;;;;12.30;66.60;;;11.45;61.14;96824.94;5052436;28;19927;-81
2023/05/13 08:12:39;;;;;;;;;;;12.30;66.30;;;11.45;61.13;96829.56;5037603;28;19920;-81
2023/05/13 08:15:10;;;;;;;;;;;12.30;66.60;;;11.43;60.81;96826.25;5054254;28;19920;-81
2023/05/13 08:17:38;;;;;;;;;;;12.30;66.40;;;11.40;61.31;96827.59;5037533;28;19928;-81
2023/05/13 08:20:07;;;;;;;;;;;12.30;66.40;;;11.39;60.47;96833.38;5053548;28;19921;-81
2023/05/13 08:22:35;;;;;;;;;;;12.30;65.80;;;11.34;61.08;96832.22;5037420;28;19928;-82
2023/05/13 08:25:04;;;;;;;;;;;12.30;66.40;;;11.31;61.28;96830.00;5040620;28;20238;-82
2023/05/13 08:27:32;;;;;;;;;;;12.20;66.30;;;11.28;61.47;96826.94;5057268;28;19926;-82
2023/05/13 08:30:01;;;;;;;;;;;12.20;66.60;;;11.23;61.54;96833.22;5090974;28;20111;-82
2023/05/13 08:32:29;;;;;;;;;;;12.20;66.70;;;11.19;61.89;96824.69;5091671;28;19923;-82
2023/05/13 08:34:58;;;;;;;;;;;12.10;66.80;;;11.15;61.57;96829.03;5074014;28;19928;-82
2023/05/13 08:37:26;;;;;;;;;;;12.10;66.80;;;11.11;61.67;96825.13;5057109;28;19920;-81
2023/05/13 08:39:55;;;;;;;;;;;12.00;66.80;;;11.07;61.85;96829.50;5073280;28;19926;-82
2023/05/13 08:42:23;;;;;;;;;;;12.00;66.90;;;11.03;61.74;96829.19;5073740;28;19920;-82
2023/05/13 08:44:51;;;;;;;;;;;12.00;66.90;;;11.02;61.72;96840.41;5091595;28;19920;-81
2023/05/13 08:47:26;;;;;;;;;;;12.00;67.20;;;11.00;61.80;96831.59;5073629;28;19943;-82
2023/05/13 08:49:55;;;;;;;;;;;11.90;67.10;;;10.97;61.95;96829.41;5072747;28;19927;-82
2023/05/13 08:52:23;;;;;;;;;;;11.90;67.20;;;10.94;61.70;96830.72;5073171;28;19926;-82
2023/05/13 08:54:51;;;;;;;;;;;11.90;67.10;;;10.92;61.76;96826.59;5056828;28;20177;-82
2023/05/13 08:57:19;;;;;;;;;;;11.90;67.10;;;10.90;62.29;96835.88;5056898;28;19931;-82
2023/05/13 08:59:47;;;;;;;;;;;11.80;67.50;;;10.88;62.06;96831.75;5055955;28;19920;-82
2023/05/13 09:02:15;;;;;;;;;;;11.80;67.50;;;10.85;62.03;96832.28;5056738;28;19920;-82
2023/05/13 09:04:44;;;;;;;;;;;11.80;67.60;;;10.85;62.36;96832.28;5091510;28;19972;-82
2023/05/13 09:07:12;;;;;;;;;;;11.80;67.70;;;10.82;62.21;96828.16;5073319;28;20116;-82
2023/05/13 09:09:41;;;;;;;;;;;11.80;67.80;;;10.81;62.65;96831.13;5072488;28;19927;-82
2023/05/13 09:12:09;;;;;;;;;;;11.70;67.90;;;10.78;62.71;96832.47;5073469;28;19926;-82
2023/05/13 09:14:37;;;;;;;;;;;11.70;68.20;;;10.77;62.95;96833.56;5056510;28;19934;-82
2023/05/13 09:17:06;;;;;;;;;;;11.70;69.20;;;10.74;62.84;96832.16;5056638;28;19942;-82
2023/05/13 09:19:35;;;;;;;;;;;11.70;68.30;;;10.73;62.97;96835.97;5072780;28;19920;-82
2023/05/13 09:22:05;;;;;;;;;;;11.70;68.40;;;10.70;62.99;96831.00;5074974;28;19926;-82
2023/05/13 09:24:33;;;;;;;;;;;11.70;68.40;;;10.70;62.87;96828.28;5076949;28;19927;-82
2023/05/13 09:27:01;;;;;;;;;;;11.60;68.50;;;10.68;62.84;96833.16;5060074;28;19920;-82
2023/05/13 09:29:29;;;;;;;;;;;11.60;68.50;;;10.69;63.40;96834.81;5075987;28;19920;-82
2023/05/13 09:31:57;;;;;;;;;;;11.60;68.50;;;10.67;63.36;96828.78;5076761;28;19920;-82
2023/05/13 09:34:27;;;;;;;;;;;11.60;68.60;;;10.67;63.28;96839.72;5059679;28;19926;-82
2023/05/13 09:36:59;;;;;;;;;;;11.60;68.70;;;10.67;63.18;96834.25;5059777;28;20212;-82
2023/05/13 09:39:29;;;;;;;;;;;11.60;68.70;;;10.66;63.07;96829.84;5075965;28;20208;-82
2023/05/13 09:41:57;;;;;;;;;;;11.60;68.70;;;10.65;63.12;96839.16;5094415;28;19926;-82
2023/05/13 09:44:25;;;;;;;;;;;11.60;68.70;;;10.66;62.96;96835.34;5059665;28;20226;-82
2023/05/13 09:46:53;;;;;;;;;;;11.60;68.80;;;10.65;63.17;96833.69;5059732;28;19928;-82
2023/05/13 09:49:22;;;;;;;;;;;11.60;68.90;;;10.66;63.56;96835.34;5075744;28;19935;-82
2023/05/13 09:51:50;;;;;;;;;;;11.60;68.90;;;10.66;63.29;96834.50;5076164;28;20208;-82
2023/05/13 09:54:18;;;;;;;;;;;11.60;69.00;;;10.65;63.31;96830.94;5076549;28;19920;-82
2023/05/13 09:56:48;;;;;;;;;;;11.60;69.00;;;10.67;63.21;96837.00;5076294;28;19920;-82
2023/05/13 09:59:16;;;;;;;;;;;11.60;69.00;;;10.67;63.53;96828.78;5075366;28;19920;-83
2023/05/13 10:01:44;;;;;;;;;;;11.60;69.00;;;10.67;63.40;96837.00;5059544;28;20127;-82
2023/05/13 10:04:12;;;;;;;;;;;11.60;69.10;;;10.66;63.57;96827.13;5094157;28;19928;-83
2023/05/13 10:06:40;;;;;;;;;;;11.60;69.20;;;10.68;63.68;96826.88;5076058;28;20025;-82
2023/05/13 10:09:08;;;;;;;;;;;11.60;69.20;;;10.68;63.74;96824.94;5075323;28;19927;-83
2023/05/13 10:11:36;;;;;;;;;;;11.60;69.20;;;10.68;63.51;96826.88;5075850;28;19934;-82
2023/05/13 10:14:07;;;;;;;;;;;11.60;69.30;;;10.68;63.72;96814.00;5093964;28;19927;-82
2023/05/13 10:16:35;;;;;;;;;;;11.60;69.30;;;10.69;63.86;96815.66;5093873;28;19927;-83
2023/05/13 10:19:03;;;;;;;;;;;11.60;69.30;;;10.70;63.65;96813.75;5058578;28;19920;-82
2023/05/13 10:21:31;;;;;;;;;;;11.60;69.30;;;10.71;63.80;96821.72;5059049;28;19920;-83
2023/05/13 10:24:00;;;;;;;;;;;11.60;69.40;;;10.71;63.88;96810.75;5058999;28;20242;-82
2023/05/13 10:26:28;;;;;;;;;;;11.60;69.30;;;10.73;63.64;96824.19;5075747;28;19920;-82
2023/05/13 10:28:56;;;;;;;;;;;11.70;69.40;;;10.72;63.46;96817.03;5058344;28;19926;-83
2023/05/13 10:31:26;;;;;;;;;;;11.70;69.50;;;10.74;63.96;96817.63;5075676;28;19920;-82
2023/05/13 10:33:54;;;;;;;;;;;11.70;69.50;;;10.74;63.65;96815.72;5074874;28;19920;-83
2023/05/13 10:36:42;;;;;;;;;;;11.70;69.40;;;10.76;63.70;96817.38;5075627;28;20212;-82
2023/05/13 10:39:19;;;;;;;;;;;11.70;69.40;;;10.77;63.80;96824.53;5075006;28;19920;-83
2023/05/13 10:42:34;;;;;;;;;;;11.70;69.30;;;10.79;63.61;96822.31;5058865;28;20093;-83
2023/05/13 10:45:02;;;;;;;;;;;11.70;69.40;;;10.81;63.80;96820.16;5013246;28;19920;-83
2023/05/13 10:47:33;;;;;;;;;;;11.70;69.40;;;10.82;63.65;96819.09;5075503;28;19920;-82
2023/05/13 10:50:04;;;;;;;;;;;11.70;69.40;;;10.83;63.62;96818.84;5074629;28;20116;-83
2023/05/13 10:52:50;;;;;;;;;;;11.80;69.40;;;10.85;63.51;96819.38;5058668;28;19930;-83
2023/05/13 10:55:19;;;;;;;;;;;11.80;69.30;;;10.88;63.34;96818.06;5058656;28;19920;-82
2023/05/13 10:58:08;;;;;;;;;;;11.80;69.20;;;10.89;63.20;96817.00;5075544;28;19920;-83
2023/05/13 11:00:37;;;;;;;;;;;11.80;69.10;;;10.90;63.40;96824.13;5057690;28;19920;-83
2023/05/13 11:03:28;;;;;;;;;;;11.80;69.10;;;10.92;63.47;96821.13;5093197;28;19960;-83
2023/05/13 11:06:03;;;;;;;;;;;11.80;69.10;;;10.94;63.80;96818.94;5064959;28;19920;-82
2023/05/13 11:08:38;;;;;;;;;;;11.90;69.20;;;10.94;63.45;96817.03;5057795;28;20115;-82
2023/05/13 11:11:34;;;;;;;;;;;11.90;69.20;;;10.96;63.37;96819.53;5075060;28;20428;-83
2023/05/13 11:14:14;;;;;;;;;;;11.90;69.20;;;10.98;63.34;96818.16;5040719;28;19920;-82
2023/05/13 11:16:45;;;;;;;;;;;11.90;69.20;;;10.99;63.76;96822.56;5075103;28;19927;-83
2023/05/13 11:19:21;;;;;;;;;;;11.90;69.10;;;11.02;63.27;96816.59;5057607;28;20127;-82
2023/05/13 11:21:51;;;;;;;;;;;11.90;68.80;;;11.03;62.96;96815.50;5074908;28;19927;-82
2023/05/13 11:24:20;;;;;;;;;;;11.90;68.70;;;11.05;62.90;96810.56;5075086;28;19928;-82
2023/05/13 11:26:49;;;;;;;;;;;12.00;68.20;;;11.08;62.30;96813.88;5074726;28;19927;-82
2023/05/13 11:29:30;;;;;;;;;;;12.00;68.00;;;11.10;61.97;96818.00;5074383;28;20226;-82
2023/05/13 11:31:59;;;;;;;;;;;12.00;67.50;;;11.12;62.36;96812.28;5074656;28;19920;-83